createdAt,value
2017-09-24T00:00:44.485Z,99.70
2017-09-24T00:01:44.482Z,99.60
2017-09-24T00:02:44.481Z,99.70
2017-09-24T00:03:44.477Z,99.99
2017-09-24T00:04:44.474Z,99.89
2017-09-24T00:05:44.473Z,99.99
2017-09-24T00:06:44.468Z,99.99
2017-09-24T00:07:44.466Z,99.60
2017-09-24T00:08:44.463Z,99.60
2017-09-24T00:09:44.460Z,99.51
2017-09-24T00:10:44.457Z,99.80
2017-09-24T00:11:44.455Z,99.99
2017-09-24T00:12:44.452Z,99.99
2017-09-24T00:13:44.449Z,99.99
2017-09-24T00:14:44.446Z,99.99
2017-09-24T00:15:44.444Z,99.99
2017-09-24T00:16:44.441Z,99.99
2017-09-24T00:17:44.438Z,99.99
2017-09-24T00:18:44.434Z,99.99
2017-09-24T00:19:44.433Z,99.99
2017-09-24T00:20:44.429Z,99.99
2017-09-24T00:21:44.426Z,99.99
2017-09-24T00:22:44.426Z,99.99
2017-09-24T00:23:44.422Z,99.99
2017-09-24T00:24:44.418Z,99.99
2017-09-24T00:25:44.415Z,99.99
2017-09-24T00:26:44.413Z,99.99
2017-09-24T00:27:44.410Z,99.99
2017-09-24T00:28:44.407Z,99.99
2017-09-24T00:29:44.403Z,99.99
2017-09-24T00:30:44.401Z,99.99
2017-09-24T00:31:44.404Z,99.99
2017-09-24T00:32:44.396Z,99.99
2017-09-24T00:33:44.393Z,99.99
2017-09-24T00:34:44.390Z,99.99
2017-09-24T00:35:44.388Z,99.99
2017-09-24T00:36:44.384Z,99.99
2017-09-24T00:37:44.381Z,99.99
2017-09-24T00:38:44.379Z,99.99
2017-09-24T00:39:44.375Z,99.99
2017-09-24T00:40:44.373Z,99.99
2017-09-24T00:41:44.370Z,99.99
2017-09-24T00:42:44.367Z,99.99
2017-09-24T00:43:44.364Z,99.99
2017-09-24T00:44:44.363Z,99.99
2017-09-24T00:45:44.358Z,99.99
2017-09-24T00:46:44.360Z,99.99
2017-09-24T00:47:44.351Z,99.99
2017-09-24T00:48:44.348Z,99.99
2017-09-24T00:49:44.345Z,99.99
2017-09-24T00:50:44.343Z,99.99
2017-09-24T00:51:44.340Z,99.99
2017-09-24T00:52:44.336Z,99.99
2017-09-24T00:53:44.333Z,99.99
2017-09-24T00:54:44.331Z,99.99
2017-09-24T00:55:44.327Z,99.99
2017-09-24T00:56:44.322Z,99.99
2017-09-24T00:57:44.320Z,99.99
2017-09-24T00:58:44.316Z,99.99
2017-09-24T00:59:44.314Z,99.99
2017-09-24T01:00:44.311Z,99.99
2017-09-24T01:01:44.307Z,99.99
2017-09-24T01:02:44.305Z,99.99
2017-09-24T01:03:44.302Z,99.99
2017-09-24T01:04:44.300Z,99.99
2017-09-24T01:05:44.296Z,99.99
2017-09-24T01:06:44.292Z,99.99
2017-09-24T01:07:44.288Z,99.99
2017-09-24T01:08:44.286Z,99.99
2017-09-24T01:09:44.283Z,99.99
2017-09-24T01:10:44.280Z,99.99
2017-09-24T01:11:44.277Z,99.99
2017-09-24T01:12:44.273Z,99.99
2017-09-24T01:13:44.271Z,99.99
2017-09-24T01:14:44.268Z,99.99
2017-09-24T01:15:44.265Z,99.99
2017-09-24T01:16:44.266Z,99.99
2017-09-24T01:17:44.258Z,99.99
2017-09-24T01:18:44.256Z,99.99
2017-09-24T01:19:44.253Z,99.99
2017-09-24T01:20:44.248Z,99.99
2017-09-24T01:21:44.245Z,99.99
2017-09-24T01:22:44.243Z,99.99
2017-09-24T01:23:44.239Z,99.99
2017-09-24T01:24:44.236Z,99.99
2017-09-24T01:25:44.234Z,99.99
2017-09-24T01:26:44.230Z,99.99
2017-09-24T01:27:44.228Z,99.99
2017-09-24T01:28:44.224Z,99.99
2017-09-24T01:29:44.222Z,99.99
2017-09-24T01:30:44.217Z,99.99
2017-09-24T01:31:44.214Z,99.99
2017-09-24T01:32:44.211Z,99.99
2017-09-24T01:33:44.209Z,99.99
2017-09-24T01:34:44.206Z,99.99
2017-09-24T01:35:44.202Z,99.99
2017-09-24T01:36:44.200Z,99.99
2017-09-24T01:37:44.196Z,99.99
2017-09-24T01:38:44.193Z,99.99
2017-09-24T01:39:44.189Z,99.99
2017-09-24T01:40:44.187Z,99.99
2017-09-24T01:41:44.183Z,99.99
2017-09-24T01:42:44.182Z,99.99
2017-09-24T01:43:44.178Z,99.99
2017-09-24T01:44:44.175Z,99.99
2017-09-24T01:45:44.171Z,99.99
2017-09-24T01:46:44.170Z,99.99
2017-09-24T01:47:44.166Z,99.99
2017-09-24T01:48:44.162Z,99.99
2017-09-24T01:49:44.160Z,99.99
2017-09-24T01:50:44.157Z,99.99
2017-09-24T01:51:44.154Z,99.99
2017-09-24T01:52:44.150Z,99.99
2017-09-24T01:53:44.147Z,99.99
2017-09-24T01:54:44.144Z,99.99
2017-09-24T01:55:44.142Z,99.99
2017-09-24T01:56:44.139Z,99.99
2017-09-24T01:57:44.135Z,99.99
2017-09-24T01:58:44.132Z,99.99
2017-09-24T01:59:44.133Z,99.99
2017-09-24T02:00:44.129Z,99.99
2017-09-24T02:01:44.124Z,99.99
2017-09-24T02:02:44.125Z,99.99
2017-09-24T02:03:44.117Z,99.99
2017-09-24T02:04:44.114Z,99.99
2017-09-24T02:05:44.112Z,99.99
2017-09-24T02:06:44.109Z,99.99
2017-09-24T02:07:44.105Z,99.99
2017-09-24T02:08:44.102Z,99.99
2017-09-24T02:09:44.100Z,99.99
2017-09-24T02:10:44.097Z,99.99
2017-09-24T02:11:44.094Z,99.99
2017-09-24T02:12:44.090Z,99.99
2017-09-24T02:13:44.088Z,99.99
2017-09-24T02:14:44.086Z,99.99
2017-09-24T02:15:44.082Z,99.99
2017-09-24T02:16:44.078Z,99.99
2017-09-24T02:17:44.077Z,99.99
2017-09-24T02:18:44.075Z,99.99
2017-09-24T02:19:44.075Z,99.99
2017-09-24T02:20:44.067Z,99.99
2017-09-24T02:21:44.064Z,99.99
2017-09-24T02:22:44.062Z,99.99
2017-09-24T02:23:44.059Z,99.99
2017-09-24T02:24:44.056Z,99.99
2017-09-24T02:25:44.053Z,99.99
2017-09-24T02:26:44.056Z,99.99
2017-09-24T02:27:44.047Z,99.99
2017-09-24T02:28:44.044Z,99.99
2017-09-24T02:29:44.041Z,99.99
2017-09-24T02:30:44.040Z,99.99
2017-09-24T02:31:44.036Z,99.99
2017-09-24T02:32:44.033Z,99.99
2017-09-24T02:33:44.031Z,99.99
2017-09-24T02:34:44.027Z,99.99
2017-09-24T02:35:44.024Z,99.99
2017-09-24T02:36:44.025Z,99.99
2017-09-24T02:37:44.018Z,99.99
2017-09-24T02:38:44.015Z,99.99
2017-09-24T02:39:44.015Z,99.99
2017-09-24T02:40:44.011Z,99.99
2017-09-24T02:41:44.008Z,99.99
2017-09-24T02:42:44.005Z,99.99
2017-09-24T02:43:44.003Z,99.99
2017-09-24T02:44:43.999Z,99.99
2017-09-24T02:45:43.999Z,99.99
2017-09-24T02:46:43.995Z,99.99
2017-09-24T02:47:43.993Z,99.99
2017-09-24T02:48:43.986Z,99.99
2017-09-24T02:49:43.985Z,99.99
2017-09-24T02:50:43.984Z,99.99
2017-09-24T02:51:43.988Z,99.99
2017-09-24T02:52:43.978Z,99.99
2017-09-24T02:53:43.976Z,99.99
2017-09-24T02:54:43.972Z,99.99
2017-09-24T02:55:43.969Z,99.99
2017-09-24T02:56:43.965Z,99.99
2017-09-24T02:57:43.965Z,99.99
2017-09-24T02:58:43.962Z,99.99
2017-09-24T02:59:43.959Z,99.99
2017-09-24T03:00:43.956Z,99.99
2017-09-24T03:01:43.954Z,99.99
2017-09-24T03:02:43.951Z,99.99
2017-09-24T03:03:43.950Z,99.99
2017-09-24T03:04:43.946Z,99.99
2017-09-24T03:05:43.943Z,99.99
2017-09-24T03:06:43.940Z,99.99
2017-09-24T03:07:43.938Z,99.99
2017-09-24T03:08:43.934Z,99.99
2017-09-24T03:09:43.932Z,99.99
2017-09-24T03:10:43.929Z,99.99
2017-09-24T03:11:43.928Z,99.99
2017-09-24T03:12:43.923Z,99.99
2017-09-24T03:13:43.921Z,99.99
2017-09-24T03:14:43.919Z,99.99
2017-09-24T03:15:43.916Z,99.99
2017-09-24T03:16:43.913Z,99.99
2017-09-24T03:17:43.909Z,99.99
2017-09-24T03:18:43.907Z,99.99
2017-09-24T03:19:43.904Z,99.99
2017-09-24T03:20:43.901Z,99.99
2017-09-24T03:21:43.898Z,99.99
2017-09-24T03:22:43.896Z,99.99
2017-09-24T03:23:43.895Z,99.99
2017-09-24T03:24:43.891Z,99.99
2017-09-24T03:25:43.888Z,99.99
2017-09-24T03:26:43.885Z,99.99
2017-09-24T03:27:43.884Z,99.99
2017-09-24T03:28:43.879Z,99.99
2017-09-24T03:29:43.876Z,99.99
2017-09-24T03:30:43.874Z,99.99
2017-09-24T03:31:43.871Z,99.99
2017-09-24T03:32:43.868Z,99.99
2017-09-24T03:33:43.865Z,99.99
2017-09-24T03:34:43.864Z,99.99
2017-09-24T03:35:43.861Z,99.99
2017-09-24T03:36:43.857Z,99.99
2017-09-24T03:37:43.856Z,99.99
2017-09-24T03:38:43.852Z,99.99
2017-09-24T03:39:43.851Z,99.99
2017-09-24T03:40:43.848Z,99.99
2017-09-24T03:41:43.844Z,99.99
2017-09-24T03:42:43.841Z,99.99
2017-09-24T03:43:43.839Z,99.99
2017-09-24T03:44:43.838Z,99.99
2017-09-24T03:45:43.833Z,99.99
2017-09-24T03:46:43.832Z,99.99
2017-09-24T03:47:43.829Z,99.99
2017-09-24T03:48:43.825Z,99.99
2017-09-24T03:49:43.823Z,99.99
2017-09-24T03:50:43.820Z,99.99
2017-09-24T03:51:43.817Z,99.99
2017-09-24T03:52:43.815Z,99.99
2017-09-24T03:53:43.813Z,99.99
2017-09-24T03:54:43.810Z,99.99
2017-09-24T03:55:43.807Z,99.99
2017-09-24T03:56:43.805Z,99.99
2017-09-24T03:57:43.803Z,99.99
2017-09-24T03:58:43.799Z,99.99
2017-09-24T03:59:43.797Z,99.99
2017-09-24T04:00:43.796Z,99.99
2017-09-24T04:01:43.792Z,99.99
2017-09-24T04:02:43.790Z,99.99
2017-09-24T04:03:43.786Z,99.99
2017-09-24T04:04:43.784Z,99.99
2017-09-24T04:05:43.782Z,99.99
2017-09-24T04:06:43.779Z,99.99
2017-09-24T04:07:43.776Z,99.99
2017-09-24T04:08:43.775Z,99.99
2017-09-24T04:09:43.771Z,99.99
2017-09-24T04:10:43.769Z,99.99
2017-09-24T04:11:43.766Z,99.99
2017-09-24T04:12:43.764Z,99.99
2017-09-24T04:13:43.764Z,99.99
2017-09-24T04:14:43.759Z,99.99
2017-09-24T04:15:43.756Z,99.99
2017-09-24T04:16:43.753Z,99.99
2017-09-24T04:17:43.751Z,99.99
2017-09-24T04:18:43.750Z,99.99
2017-09-24T04:19:43.746Z,99.99
2017-09-24T04:20:43.747Z,99.99
2017-09-24T04:21:43.739Z,99.99
2017-09-24T04:22:43.738Z,99.99
2017-09-24T04:23:43.736Z,99.99
2017-09-24T04:24:43.733Z,99.99
2017-09-24T04:25:43.732Z,99.99
2017-09-24T04:26:43.729Z,99.99
2017-09-24T04:27:43.726Z,99.99
2017-09-24T04:28:43.723Z,99.99
2017-09-24T04:29:43.721Z,99.99
2017-09-24T04:30:43.720Z,99.99
2017-09-24T04:31:43.717Z,99.99
2017-09-24T04:32:43.713Z,99.99
2017-09-24T04:33:43.711Z,99.99
2017-09-24T04:34:43.709Z,99.99
2017-09-24T04:35:43.711Z,99.99
2017-09-24T04:36:43.708Z,99.99
2017-09-24T04:37:43.734Z,99.99
2017-09-24T04:38:43.699Z,99.99
2017-09-24T04:39:43.696Z,99.99
2017-09-24T04:40:43.693Z,99.99
2017-09-24T04:41:43.693Z,99.99
2017-09-24T04:42:43.690Z,99.99
2017-09-24T04:43:43.687Z,99.99
2017-09-24T04:44:43.684Z,99.99
2017-09-24T04:45:43.682Z,99.99
2017-09-24T04:46:43.678Z,99.99
2017-09-24T04:47:43.678Z,99.99
2017-09-24T04:48:43.674Z,99.99
2017-09-24T04:49:43.672Z,99.99
2017-09-24T04:50:43.670Z,99.99
2017-09-24T04:51:43.669Z,99.99
2017-09-24T04:52:43.665Z,99.99
2017-09-24T04:53:43.663Z,99.99
2017-09-24T04:54:43.660Z,99.99
2017-09-24T04:55:43.662Z,99.99
2017-09-24T04:56:43.655Z,99.99
2017-09-24T04:57:43.653Z,99.99
2017-09-24T04:58:43.650Z,99.99
2017-09-24T04:59:43.647Z,99.99
2017-09-24T05:00:43.645Z,99.99
2017-09-24T05:01:43.644Z,99.99
2017-09-24T05:02:43.642Z,99.99
2017-09-24T05:03:43.639Z,99.99
2017-09-24T05:04:43.635Z,99.99
2017-09-24T05:05:43.634Z,99.99
2017-09-24T05:06:43.631Z,99.99
2017-09-24T05:07:43.629Z,99.99
2017-09-24T05:08:43.631Z,99.99
2017-09-24T05:09:43.625Z,99.99
2017-09-24T05:10:43.622Z,99.99
2017-09-24T05:11:43.620Z,99.99
2017-09-24T05:12:43.617Z,99.99
2017-09-24T05:13:43.616Z,99.99
2017-09-24T05:14:43.618Z,99.99
2017-09-24T05:15:43.611Z,99.99
2017-09-24T05:16:43.609Z,99.99
2017-09-24T05:17:43.606Z,99.99
2017-09-24T05:18:43.634Z,99.99
2017-09-24T05:19:43.604Z,99.99
2017-09-24T05:20:43.599Z,99.99
2017-09-24T05:21:43.596Z,99.99
2017-09-24T05:22:43.593Z,99.99
2017-09-24T05:23:43.592Z,99.99
2017-09-24T05:24:43.588Z,99.99
2017-09-24T05:25:43.586Z,99.99
2017-09-24T05:26:43.584Z,99.99
2017-09-24T05:27:43.582Z,99.99
2017-09-24T05:28:43.581Z,99.99
2017-09-24T05:29:43.577Z,99.99
2017-09-24T05:30:43.575Z,99.99
2017-09-24T05:31:43.574Z,99.99
2017-09-24T05:32:43.570Z,99.99
2017-09-24T05:33:43.568Z,99.99
2017-09-24T05:34:43.565Z,99.99
2017-09-24T05:35:43.564Z,99.99
2017-09-24T05:36:43.560Z,99.99
2017-09-24T05:37:43.558Z,99.99
2017-09-24T05:38:43.556Z,99.99
2017-09-24T05:39:43.553Z,99.99
2017-09-24T05:40:43.551Z,99.99
2017-09-24T05:41:43.550Z,99.99
2017-09-24T05:42:43.546Z,99.99
2017-09-24T05:43:43.546Z,99.99
2017-09-24T05:44:43.543Z,99.99
2017-09-24T05:45:43.540Z,99.99
2017-09-24T05:46:43.537Z,99.99
2017-09-24T05:47:43.537Z,99.99
2017-09-24T05:48:43.534Z,99.99
2017-09-24T05:49:43.529Z,99.99
2017-09-24T05:50:43.527Z,99.99
2017-09-24T05:51:43.526Z,99.99
2017-09-24T05:52:43.524Z,99.99
2017-09-24T05:53:43.522Z,99.99
2017-09-24T05:54:43.519Z,99.99
2017-09-24T05:55:43.519Z,99.99
2017-09-24T05:56:43.516Z,99.99
2017-09-24T05:57:43.512Z,99.99
2017-09-24T05:58:43.510Z,99.99
2017-09-24T05:59:43.508Z,99.99
2017-09-24T06:00:43.505Z,99.99
2017-09-24T06:01:43.502Z,99.99
2017-09-24T06:02:43.501Z,99.99
2017-09-24T06:03:43.502Z,99.99
2017-09-24T06:04:43.498Z,99.99
2017-09-24T06:05:43.524Z,99.99
2017-09-24T06:06:43.492Z,99.99
2017-09-24T06:07:43.492Z,99.99
2017-09-24T06:08:43.488Z,99.99
2017-09-24T06:09:43.486Z,99.99
2017-09-24T06:10:43.484Z,99.99
2017-09-24T06:11:43.483Z,99.99
2017-09-24T06:12:43.479Z,99.99
2017-09-24T06:13:43.477Z,99.99
2017-09-24T06:14:43.476Z,99.99
2017-09-24T06:15:43.473Z,99.99
2017-09-24T06:16:43.471Z,99.99
2017-09-24T06:17:43.469Z,99.99
2017-09-24T06:18:43.501Z,99.99
2017-09-24T06:19:43.466Z,99.99
2017-09-24T06:20:43.463Z,99.99
2017-09-24T06:21:43.461Z,99.99
2017-09-24T06:22:43.461Z,99.99
2017-09-24T06:23:43.457Z,99.99
2017-09-24T06:24:43.455Z,99.99
2017-09-24T06:25:43.452Z,99.99
2017-09-24T06:26:43.450Z,99.99
2017-09-24T06:27:43.449Z,99.99
2017-09-24T06:28:43.446Z,99.99
2017-09-24T06:29:43.445Z,99.99
2017-09-24T06:30:43.442Z,99.99
2017-09-24T06:31:43.442Z,99.99
2017-09-24T06:32:43.439Z,99.99
2017-09-24T06:33:43.437Z,99.99
2017-09-24T06:34:43.434Z,99.99
2017-09-24T06:35:43.433Z,99.99
2017-09-24T06:36:43.432Z,99.99
2017-09-24T06:37:43.429Z,99.99
2017-09-24T06:38:43.428Z,99.99
2017-09-24T06:39:43.427Z,99.99
2017-09-24T06:40:43.424Z,99.99
2017-09-24T06:41:43.421Z,99.99
2017-09-24T06:42:43.420Z,99.99
2017-09-24T06:43:43.419Z,99.99
2017-09-24T06:44:43.416Z,99.99
2017-09-24T06:45:43.414Z,99.99
2017-09-24T06:46:43.413Z,99.99
2017-09-24T06:47:43.411Z,99.99
2017-09-24T06:48:43.408Z,99.99
2017-09-24T06:49:43.407Z,99.99
2017-09-24T06:50:43.439Z,99.99
2017-09-24T06:51:43.404Z,99.99
2017-09-24T06:52:43.401Z,99.99
2017-09-24T06:53:43.400Z,99.99
2017-09-24T06:54:43.399Z,99.99
2017-09-24T06:55:43.397Z,99.99
2017-09-24T06:56:43.395Z,99.99
2017-09-24T06:57:43.394Z,99.99
2017-09-24T06:58:43.391Z,99.99
2017-09-24T06:59:43.390Z,99.99
2017-09-24T07:00:43.389Z,99.99
2017-09-24T07:01:43.387Z,99.99
2017-09-24T07:02:43.385Z,99.99
2017-09-24T07:03:43.385Z,99.99
2017-09-24T07:04:43.382Z,99.99
2017-09-24T07:05:43.382Z,99.99
2017-09-24T07:06:43.380Z,99.99
2017-09-24T07:07:43.379Z,99.99
2017-09-24T07:08:43.377Z,99.99
2017-09-24T07:09:43.375Z,99.99
2017-09-24T07:10:43.373Z,99.99
2017-09-24T07:11:43.373Z,99.99
2017-09-24T07:12:43.371Z,99.99
2017-09-24T07:13:43.371Z,99.99
2017-09-24T07:14:43.369Z,99.99
2017-09-24T07:15:43.368Z,99.99
2017-09-24T07:16:43.367Z,99.99
2017-09-24T07:17:43.366Z,99.99
2017-09-24T07:18:43.364Z,99.99
2017-09-24T07:19:43.363Z,99.99
2017-09-24T07:20:43.361Z,99.99
2017-09-24T07:21:43.359Z,99.99
2017-09-24T07:22:43.361Z,99.99
2017-09-24T07:23:43.359Z,99.99
2017-09-24T07:24:43.357Z,99.71
2017-09-24T07:25:43.355Z,99.52
2017-09-24T07:26:43.354Z,99.52
2017-09-24T07:27:43.360Z,99.62
2017-09-24T07:28:43.352Z,99.71
2017-09-24T07:29:43.351Z,99.33
2017-09-24T07:30:43.352Z,98.85
2017-09-24T07:31:43.350Z,98.57
2017-09-24T07:32:43.348Z,98.38
2017-09-24T07:33:43.345Z,98.66
2017-09-24T07:34:43.346Z,98.09
2017-09-24T07:35:43.345Z,97.80
2017-09-24T07:36:43.343Z,98.18
2017-09-24T07:37:43.342Z,98.09
2017-09-24T07:38:43.341Z,97.80
2017-09-24T07:39:43.341Z,96.75
2017-09-24T07:40:43.339Z,96.94
2017-09-24T07:41:43.338Z,97.13
2017-09-24T07:42:43.345Z,97.33
2017-09-24T07:43:43.337Z,96.75
2017-09-24T07:44:43.336Z,96.84
2017-09-24T07:45:43.335Z,96.70
2017-09-24T07:46:43.335Z,97.13
2017-09-24T07:47:43.333Z,96.80
2017-09-24T07:48:43.332Z,96.80
2017-09-24T07:49:43.331Z,96.13
2017-09-24T07:50:43.331Z,96.13
2017-09-24T07:51:43.334Z,95.94
2017-09-24T07:52:43.329Z,96.22
2017-09-24T07:53:43.327Z,94.98
2017-09-24T07:54:43.327Z,95.75
2017-09-24T07:55:43.326Z,95.22
2017-09-24T07:56:43.328Z,94.70
2017-09-24T07:57:43.326Z,94.74
2017-09-24T07:58:43.331Z,94.45
2017-09-24T07:59:43.325Z,93.98
2017-09-24T08:00:43.322Z,93.50
2017-09-24T08:01:43.322Z,93.59
2017-09-24T08:02:43.322Z,93.26
2017-09-24T08:03:43.329Z,92.49
2017-09-24T08:04:43.321Z,92.11
2017-09-24T08:05:43.320Z,91.82
2017-09-24T08:06:43.322Z,92.01
2017-09-24T08:07:43.320Z,91.15
2017-09-24T08:08:43.319Z,90.67
2017-09-24T08:09:43.320Z,89.72
2017-09-24T08:10:43.320Z,89.72
2017-09-24T08:11:43.322Z,89.81
2017-09-24T08:12:43.319Z,89.33
2017-09-24T08:13:43.319Z,89.76
2017-09-24T08:14:43.320Z,88.80
2017-09-24T08:15:43.323Z,88.70
2017-09-24T08:16:43.321Z,88.13
2017-09-24T08:17:43.320Z,88.32
2017-09-24T08:18:43.320Z,87.84
2017-09-24T08:19:43.321Z,87.88
2017-09-24T08:20:43.320Z,87.50
2017-09-24T08:21:43.323Z,86.54
2017-09-24T08:22:43.322Z,86.35
2017-09-24T08:23:43.324Z,85.78
2017-09-24T08:24:43.325Z,85.72
2017-09-24T08:25:43.324Z,85.34
2017-09-24T08:26:43.325Z,84.95
2017-09-24T08:27:43.328Z,84.28
2017-09-24T08:28:43.326Z,85.05
2017-09-24T08:29:43.330Z,84.38
2017-09-24T08:30:43.330Z,84.00
2017-09-24T08:31:43.330Z,83.52
2017-09-24T08:32:43.331Z,83.71
2017-09-24T08:33:43.332Z,84.58
2017-09-24T08:34:43.333Z,84.19
2017-09-24T08:35:43.334Z,83.18
2017-09-24T08:36:43.335Z,83.65
2017-09-24T08:37:43.337Z,82.98
2017-09-24T08:38:43.338Z,81.74
2017-09-24T08:39:43.342Z,82.21
2017-09-24T08:40:43.340Z,81.74
2017-09-24T08:41:43.344Z,81.84
2017-09-24T08:42:43.345Z,81.45
2017-09-24T08:43:43.347Z,82.21
2017-09-24T08:44:43.348Z,81.93
2017-09-24T08:45:43.349Z,82.12
2017-09-24T08:46:43.350Z,82.21
2017-09-24T08:47:43.355Z,82.03
2017-09-24T08:48:43.354Z,82.03
2017-09-24T08:49:43.356Z,82.08
2017-09-24T08:50:43.358Z,82.65
2017-09-24T08:51:43.360Z,83.04
2017-09-24T08:52:43.362Z,83.04
2017-09-24T08:53:43.363Z,83.18
2017-09-24T08:54:43.365Z,83.18
2017-09-24T08:55:43.368Z,83.08
2017-09-24T08:56:43.379Z,83.08
2017-09-24T08:57:43.371Z,83.08
2017-09-24T08:58:43.377Z,82.89
2017-09-24T08:59:43.374Z,81.93
2017-09-24T09:00:43.376Z,82.70
2017-09-24T09:01:43.378Z,81.97
2017-09-24T09:02:43.380Z,82.03
2017-09-24T09:03:43.384Z,81.64
2017-09-24T09:04:43.383Z,81.64
2017-09-24T09:05:43.386Z,81.54
2017-09-24T09:06:43.390Z,81.54
2017-09-24T09:07:43.391Z,81.64
2017-09-24T09:08:43.393Z,81.59
2017-09-24T09:09:43.394Z,81.49
2017-09-24T09:10:43.397Z,82.21
2017-09-24T09:11:43.400Z,81.54
2017-09-24T09:12:43.400Z,81.26
2017-09-24T09:13:43.404Z,79.28
2017-09-24T09:14:43.407Z,78.67
2017-09-24T09:15:43.415Z,80.49
2017-09-24T09:16:43.413Z,79.82
2017-09-24T09:17:43.414Z,80.11
2017-09-24T09:18:43.418Z,80.68
2017-09-24T09:19:43.420Z,80.11
2017-09-24T09:20:43.422Z,78.90
2017-09-24T09:21:43.425Z,79.34
2017-09-24T09:22:43.428Z,79.47
2017-09-24T09:23:43.431Z,79.13
2017-09-24T09:24:43.435Z,75.75
2017-09-24T09:25:43.436Z,73.98
2017-09-24T09:26:43.440Z,75.38
2017-09-24T09:27:43.443Z,76.25
2017-09-24T09:28:43.446Z,76.00
2017-09-24T09:29:43.449Z,73.92
2017-09-24T09:30:43.457Z,72.23
2017-09-24T09:31:43.455Z,70.34
2017-09-24T09:32:43.460Z,70.62
2017-09-24T09:33:43.464Z,69.60
2017-09-24T09:34:43.470Z,68.44
2017-09-24T09:35:43.473Z,68.19
2017-09-24T09:36:43.477Z,66.94
2017-09-24T09:37:43.481Z,68.04
2017-09-24T09:38:43.489Z,65.78
2017-09-24T09:39:43.490Z,63.57
2017-09-24T09:40:43.494Z,64.34
2017-09-24T09:41:43.502Z,64.63
2017-09-24T09:42:43.513Z,63.70
2017-09-24T09:43:43.513Z,62.57
2017-09-24T09:44:43.518Z,65.30
2017-09-24T09:45:43.532Z,64.86
2017-09-24T09:46:43.532Z,63.37
2017-09-24T09:47:43.538Z,63.40
2017-09-24T09:48:43.544Z,62.51
2017-09-24T09:49:43.552Z,63.06
2017-09-24T09:50:43.558Z,64.63
2017-09-24T09:51:43.566Z,67.19
2017-09-24T09:52:43.571Z,68.22
2017-09-24T09:53:43.579Z,68.84
2017-09-24T09:54:43.587Z,68.90
2017-09-24T09:55:43.598Z,70.59
2017-09-24T09:56:43.600Z,71.17
2017-09-24T09:57:43.609Z,71.65
2017-09-24T09:58:43.618Z,70.68
2017-09-24T09:59:43.623Z,70.92
2017-09-24T10:00:43.630Z,69.67
2017-09-24T10:01:43.637Z,69.85
2017-09-24T10:02:43.643Z,68.80
2017-09-24T10:03:43.652Z,68.84
2017-09-24T10:04:43.657Z,68.84
2017-09-24T10:05:43.665Z,69.38
2017-09-24T10:06:43.672Z,70.62
2017-09-24T10:07:43.679Z,67.87
2017-09-24T10:08:43.684Z,67.39
2017-09-24T10:09:43.691Z,67.71
2017-09-24T10:10:43.699Z,66.55
2017-09-24T10:11:43.706Z,65.81
2017-09-24T10:12:43.712Z,63.40
2017-09-24T10:13:43.723Z,61.15
2017-09-24T10:14:43.727Z,58.12
2017-09-24T10:15:43.735Z,55.43
2017-09-24T10:16:43.740Z,54.49
2017-09-24T10:17:43.746Z,53.45
2017-09-24T10:18:43.756Z,53.43
2017-09-24T10:19:43.762Z,53.55
2017-09-24T10:20:43.769Z,52.17
2017-09-24T10:21:43.778Z,53.31
2017-09-24T10:22:43.788Z,54.30
2017-09-24T10:23:43.795Z,53.04
2017-09-24T10:24:43.803Z,54.53
2017-09-24T10:25:43.813Z,53.59
2017-09-24T10:26:43.821Z,53.43
2017-09-24T10:27:43.831Z,53.77
2017-09-24T10:28:43.839Z,54.80
2017-09-24T10:29:43.848Z,56.22
2017-09-24T10:30:43.859Z,56.51
2017-09-24T10:31:43.869Z,58.48
2017-09-24T10:32:43.878Z,59.45
2017-09-24T10:33:43.887Z,60.00
2017-09-24T10:34:43.896Z,61.80
2017-09-24T10:35:43.906Z,61.77
2017-09-24T10:36:43.918Z,63.47
2017-09-24T10:37:43.930Z,63.76
2017-09-24T10:38:43.934Z,64.98
2017-09-24T10:39:43.944Z,65.72
2017-09-24T10:40:43.952Z,66.68
2017-09-24T10:41:43.960Z,67.42
2017-09-24T10:42:43.969Z,68.57
2017-09-24T10:43:43.978Z,69.15
2017-09-24T10:44:43.984Z,68.73
2017-09-24T10:45:43.993Z,69.82
2017-09-24T10:46:44.002Z,68.86
2017-09-24T10:47:44.008Z,68.48
2017-09-24T10:48:44.017Z,68.57
2017-09-24T10:49:44.035Z,68.25
2017-09-24T10:50:44.032Z,67.68
2017-09-24T10:51:44.038Z,68.44
2017-09-24T10:52:44.044Z,69.12
2017-09-24T10:53:44.052Z,68.15
2017-09-24T10:54:44.058Z,68.63
2017-09-24T10:55:44.064Z,68.15
2017-09-24T10:56:44.071Z,68.67
2017-09-24T10:57:44.078Z,67.99
2017-09-24T10:58:44.084Z,68.19
2017-09-24T10:59:44.093Z,67.13
2017-09-24T11:00:44.095Z,67.03
2017-09-24T11:01:44.100Z,66.74
2017-09-24T11:02:44.107Z,66.91
2017-09-24T11:03:44.112Z,67.93
2017-09-24T11:04:44.117Z,69.31
2017-09-24T11:05:44.124Z,68.44
2017-09-24T11:06:44.129Z,67.54
2017-09-24T11:07:44.134Z,67.29
2017-09-24T11:08:44.140Z,65.94
2017-09-24T11:09:44.145Z,66.71
2017-09-24T11:10:44.151Z,66.81
2017-09-24T11:11:44.156Z,66.81
2017-09-24T11:12:44.160Z,66.91
2017-09-24T11:13:44.197Z,66.94
2017-09-24T11:14:44.171Z,67.13
2017-09-24T11:15:44.176Z,67.32
2017-09-24T11:16:44.181Z,69.12
2017-09-24T11:17:44.185Z,68.73
2017-09-24T11:18:44.191Z,67.10
2017-09-24T11:19:44.195Z,68.54
2017-09-24T11:20:44.200Z,68.02
2017-09-24T11:21:44.204Z,67.86
2017-09-24T11:22:44.208Z,67.00
2017-09-24T11:23:44.213Z,66.81
2017-09-24T11:24:44.217Z,67.16
2017-09-24T11:25:44.223Z,67.86
2017-09-24T11:26:44.227Z,68.35
2017-09-24T11:27:44.232Z,67.96
2017-09-24T11:28:44.236Z,68.54
2017-09-24T11:29:44.240Z,67.19
2017-09-24T11:30:44.245Z,66.61
2017-09-24T11:31:44.248Z,67.68
2017-09-24T11:32:44.253Z,66.61
2017-09-24T11:33:44.256Z,66.36
2017-09-24T11:34:44.260Z,66.27
2017-09-24T11:35:44.266Z,65.69
2017-09-24T11:36:44.268Z,65.69
2017-09-24T11:37:44.273Z,64.63
2017-09-24T11:38:44.278Z,65.56
2017-09-24T11:39:44.281Z,65.94
2017-09-24T11:40:44.285Z,66.23
2017-09-24T11:41:44.290Z,67.10
2017-09-24T11:42:44.295Z,67.10
2017-09-24T11:43:44.298Z,65.84
2017-09-24T11:44:44.302Z,65.94
2017-09-24T11:45:44.306Z,66.14
2017-09-24T11:46:44.311Z,65.94
2017-09-24T11:47:44.315Z,65.66
2017-09-24T11:48:44.319Z,67.19
2017-09-24T11:49:44.321Z,66.81
2017-09-24T11:50:44.326Z,66.61
2017-09-24T11:51:44.330Z,67.10
2017-09-24T11:52:44.334Z,67.38
2017-09-24T11:53:44.337Z,67.86
2017-09-24T11:54:44.342Z,67.96
2017-09-24T11:55:44.345Z,65.84
2017-09-24T11:56:44.349Z,65.56
2017-09-24T11:57:44.352Z,64.69
2017-09-24T11:58:44.356Z,65.08
2017-09-24T11:59:44.359Z,66.52
2017-09-24T12:00:44.364Z,67.10
2017-09-24T12:01:44.368Z,65.88
2017-09-24T12:02:44.372Z,65.88
2017-09-24T12:03:44.376Z,66.17
2017-09-24T12:04:44.379Z,65.78
2017-09-24T12:05:44.383Z,66.46
2017-09-24T12:06:44.386Z,65.01
2017-09-24T12:07:44.391Z,64.63
2017-09-24T12:08:44.395Z,64.82
2017-09-24T12:09:44.397Z,63.86
2017-09-24T12:10:44.403Z,63.28
2017-09-24T12:11:44.406Z,62.80
2017-09-24T12:12:44.409Z,62.99
2017-09-24T12:13:44.413Z,63.28
2017-09-24T12:14:44.417Z,63.86
2017-09-24T12:15:44.422Z,64.60
2017-09-24T12:16:44.423Z,65.84
2017-09-24T12:17:44.429Z,65.59
2017-09-24T12:18:44.432Z,64.92
2017-09-24T12:19:44.436Z,64.73
2017-09-24T12:20:44.439Z,63.76
2017-09-24T12:21:44.442Z,64.79
2017-09-24T12:22:44.448Z,65.27
2017-09-24T12:23:44.449Z,65.97
2017-09-24T12:24:44.454Z,66.81
2017-09-24T12:25:44.457Z,66.52
2017-09-24T12:26:44.462Z,65.75
2017-09-24T12:27:44.466Z,65.75
2017-09-24T12:28:44.468Z,65.66
2017-09-24T12:29:44.473Z,65.78
2017-09-24T12:30:44.476Z,65.97
2017-09-24T12:31:44.480Z,62.03
2017-09-24T12:32:44.484Z,62.32
2017-09-24T12:33:44.485Z,63.02
2017-09-24T12:34:44.492Z,61.77
2017-09-24T12:35:44.493Z,60.91
2017-09-24T12:36:44.497Z,60.33
2017-09-24T12:37:44.502Z,59.82
2017-09-24T12:38:44.510Z,59.72
2017-09-24T12:39:44.515Z,61.26
2017-09-24T12:40:44.510Z,61.36
2017-09-24T12:41:44.515Z,61.46
2017-09-24T12:42:44.520Z,61.84
2017-09-24T12:43:44.521Z,60.97
2017-09-24T12:44:44.524Z,61.36
2017-09-24T12:45:44.528Z,61.26
2017-09-24T12:46:44.532Z,61.65
2017-09-24T12:47:44.538Z,61.46
2017-09-24T12:48:44.538Z,60.39
2017-09-24T12:49:44.541Z,60.04
2017-09-24T12:50:44.546Z,60.91
2017-09-24T12:51:44.548Z,61.55
2017-09-24T12:52:44.551Z,61.46